sensor_id;sensor_type;location;lat;lon;timestamp;P1;durP1;ratioP1;P2;durP2;ratioP2
35745;SDS011;21870;42.812;74.628;2024-01-15T00:01:07;61.20;;;37.50;;
35745;SDS011;21870;42.812;74.628;2024-01-15T00:03:33;52.88;;;33.70;;
35745;SDS011;21870;42.812;74.628;2024-01-15T00:05:59;67.43;;;38.30;;
35745;SDS011;21870;42.812;74.628;2024-01-15T00:08:25;62.65;;;37.17;;
35745;SDS011;21870;42.812;74.628;2024-01-15T00:10:51;51.35;;;33.63;;
35745;SDS011;21870;42.812;74.628;2024-01-15T00:13:17;56.92;;;35.75;;
35745;SDS011;21870;42.812;74.628;2024-01-15T00:15:43;56.40;;;35.30;;
35745;SDS011;21870;42.812;74.628;2024-01-15T00:18:09;53.00;;;33.22;;
35745;SDS011;21870;42.812;74.628;2024-01-15T00:20:35;44.83;;;29.95;;
35745;SDS011;21870;42.812;74.628;2024-01-15T00:23:01;44.33;;;29.95;;
35745;SDS011;21870;42.812;74.628;2024-01-15T00:25:27;36.17;;;26.42;;
35745;SDS011;21870;42.812;74.628;2024-01-15T00:27:53;37.90;;;25.42;;
35745;SDS011;21870;42.812;74.628;2024-01-15T00:30:19;35.20;;;24.73;;
35745;SDS011;21870;42.812;74.628;2024-01-15T00:32:45;37.05;;;25.10;;
35745;SDS011;21870;42.812;74.628;2024-01-15T00:35:11;38.08;;;26.35;;
35745;SDS011;21870;42.812;74.628;2024-01-15T00:37:37;35.10;;;24.77;;
35745;SDS011;21870;42.812;74.628;2024-01-15T00:40:03;31.27;;;22.83;;
35745;SDS011;21870;42.812;74.628;2024-01-15T00:42:30;52.38;;;39.17;;
35745;SDS011;21870;42.812;74.628;2024-01-15T00:44:56;35.58;;;27.45;;
35745;SDS011;21870;42.812;74.628;2024-01-15T00:47:22;38.55;;;26.58;;
35745;SDS011;21870;42.812;74.628;2024-01-15T00:49:48;31.95;;;24.13;;
35745;SDS011;21870;42.812;74.628;2024-01-15T00:52:14;33.30;;;24.13;;
35745;SDS011;21870;42.812;74.628;2024-01-15T00:54:40;31.83;;;21.63;;
35745;SDS011;21870;42.812;74.628;2024-01-15T00:57:06;29.73;;;22.90;;
35745;SDS011;21870;42.812;74.628;2024-01-15T00:59:32;31.88;;;22.08;;
35745;SDS011;21870;42.812;74.628;2024-01-15T01:01:58;30.33;;;21.42;;
35745;SDS011;21870;42.812;74.628;2024-01-15T01:04:24;28.83;;;21.60;;
35745;SDS011;21870;42.812;74.628;2024-01-15T01:06:50;28.58;;;19.85;;
35745;SDS011;21870;42.812;74.628;2024-01-15T01:09:16;31.77;;;21.42;;
35745;SDS011;21870;42.812;74.628;2024-01-15T01:11:42;36.35;;;23.20;;
35745;SDS011;21870;42.812;74.628;2024-01-15T01:14:08;31.52;;;23.33;;
35745;SDS011;21870;42.812;74.628;2024-01-15T01:16:34;29.27;;;20.35;;
35745;SDS011;21870;42.812;74.628;2024-01-15T01:19:04;33.67;;;21.27;;
35745;SDS011;21870;42.812;74.628;2024-01-15T01:21:31;33.08;;;20.08;;
35745;SDS011;21870;42.812;74.628;2024-01-15T01:23:58;24.75;;;18.25;;
35745;SDS011;21870;42.812;74.628;2024-01-15T01:26:24;29.27;;;19.70;;
35745;SDS011;21870;42.812;74.628;2024-01-15T01:28:53;26.10;;;17.83;;
35745;SDS011;21870;42.812;74.628;2024-01-15T01:31:19;24.30;;;18.15;;
35745;SDS011;21870;42.812;74.628;2024-01-15T01:33:45;27.63;;;19.88;;
35745;SDS011;21870;42.812;74.628;2024-01-15T01:36:11;26.60;;;19.35;;
35745;SDS011;21870;42.812;74.628;2024-01-15T01:38:37;25.92;;;19.35;;
35745;SDS011;21870;42.812;74.628;2024-01-15T01:41:03;21.88;;;17.52;;
35745;SDS011;21870;42.812;74.628;2024-01-15T01:43:29;22.90;;;17.95;;
35745;SDS011;21870;42.812;74.628;2024-01-15T01:45:55;23.00;;;16.73;;
35745;SDS011;21870;42.812;74.628;2024-01-15T01:48:24;22.60;;;16.77;;
35745;SDS011;21870;42.812;74.628;2024-01-15T01:50:52;24.63;;;19.13;;
35745;SDS011;21870;42.812;74.628;2024-01-15T01:53:20;24.65;;;17.65;;
35745;SDS011;21870;42.812;74.628;2024-01-15T01:55:46;23.25;;;17.80;;
35745;SDS011;21870;42.812;74.628;2024-01-15T01:58:14;25.50;;;19.92;;
35745;SDS011;21870;42.812;74.628;2024-01-15T02:00:40;24.60;;;19.13;;
35745;SDS011;21870;42.812;74.628;2024-01-15T02:03:06;28.38;;;19.25;;
35745;SDS011;21870;42.812;74.628;2024-01-15T02:05:37;24.08;;;19.35;;
35745;SDS011;21870;42.812;74.628;2024-01-15T02:08:05;29.48;;;22.48;;
35745;SDS011;21870;42.812;74.628;2024-01-15T02:10:31;32.78;;;23.98;;
35745;SDS011;21870;42.812;74.628;2024-01-15T02:12:57;36.72;;;25.17;;
35745;SDS011;21870;42.812;74.628;2024-01-15T02:15:23;35.13;;;24.48;;
35745;SDS011;21870;42.812;74.628;2024-01-15T02:18:03;37.10;;;26.30;;
35745;SDS011;21870;42.812;74.628;2024-01-15T02:20:31;52.88;;;37.42;;
35745;SDS011;21870;42.812;74.628;2024-01-15T02:23:03;60.05;;;41.65;;
35745;SDS011;21870;42.812;74.628;2024-01-15T02:25:32;70.68;;;48.80;;
35745;SDS011;21870;42.812;74.628;2024-01-15T02:28:09;107.65;;;57.85;;
35745;SDS011;21870;42.812;74.628;2024-01-15T02:30:38;107.53;;;57.13;;
35745;SDS011;21870;42.812;74.628;2024-01-15T02:33:05;100.00;;;56.25;;
35745;SDS011;21870;42.812;74.628;2024-01-15T02:35:31;98.40;;;55.30;;
35745;SDS011;21870;42.812;74.628;2024-01-15T02:37:58;108.28;;;59.67;;
35745;SDS011;21870;42.812;74.628;2024-01-15T02:40:24;112.20;;;63.10;;
35745;SDS011;21870;42.812;74.628;2024-01-15T02:42:50;117.82;;;64.53;;
35745;SDS011;21870;42.812;74.628;2024-01-15T02:45:16;118.00;;;62.92;;
35745;SDS011;21870;42.812;74.628;2024-01-15T02:47:42;111.25;;;62.83;;
35745;SDS011;21870;42.812;74.628;2024-01-15T02:50:08;128.95;;;62.08;;
35745;SDS011;21870;42.812;74.628;2024-01-15T02:52:34;102.55;;;55.95;;
35745;SDS011;21870;42.812;74.628;2024-01-15T02:55:00;171.40;;;54.75;;
35745;SDS011;21870;42.812;74.628;2024-01-15T02:57:26;96.13;;;42.00;;
35745;SDS011;21870;42.812;74.628;2024-01-15T02:59:52;221.05;;;51.47;;
35745;SDS011;21870;42.812;74.628;2024-01-15T03:02:18;95.85;;;45.10;;
35745;SDS011;21870;42.812;74.628;2024-01-15T03:04:44;283.25;;;52.47;;
35745;SDS011;21870;42.812;74.628;2024-01-15T03:07:10;83.07;;;41.25;;
35745;SDS011;21870;42.812;74.628;2024-01-15T03:09:36;173.60;;;46.15;;
35745;SDS011;21870;42.812;74.628;2024-01-15T03:12:02;159.63;;;46.85;;
35745;SDS011;21870;42.812;74.628;2024-01-15T03:14:28;93.20;;;38.38;;
35745;SDS011;21870;42.812;74.628;2024-01-15T03:16:54;151.45;;;40.25;;
35745;SDS011;21870;42.812;74.628;2024-01-15T03:19:21;53.97;;;32.15;;
35745;SDS011;21870;42.812;74.628;2024-01-15T03:21:47;62.00;;;32.38;;
35745;SDS011;21870;42.812;74.628;2024-01-15T03:24:13;79.80;;;34.33;;
35745;SDS011;21870;42.812;74.628;2024-01-15T03:26:39;196.82;;;39.83;;
35745;SDS011;21870;42.812;74.628;2024-01-15T03:29:09;264.90;;;44.65;;
35745;SDS011;21870;42.812;74.628;2024-01-15T03:31:35;247.23;;;42.05;;
35745;SDS011;21870;42.812;74.628;2024-01-15T03:34:01;154.98;;;37.85;;
35745;SDS011;21870;42.812;74.628;2024-01-15T03:36:27;59.78;;;31.38;;
35745;SDS011;21870;42.812;74.628;2024-01-15T03:38:53;142.80;;;35.85;;
35745;SDS011;21870;42.812;74.628;2024-01-15T03:41:19;68.25;;;35.38;;
35745;SDS011;21870;42.812;74.628;2024-01-15T03:43:45;180.90;;;38.40;;
35745;SDS011;21870;42.812;74.628;2024-01-15T03:46:11;44.90;;;29.40;;
35745;SDS011;21870;42.812;74.628;2024-01-15T03:48:37;121.68;;;37.45;;
35745;SDS011;21870;42.812;74.628;2024-01-15T03:51:03;102.65;;;36.30;;
35745;SDS011;21870;42.812;74.628;2024-01-15T03:53:29;150.15;;;40.42;;
35745;SDS011;21870;42.812;74.628;2024-01-15T03:55:56;124.20;;;34.83;;
35745;SDS011;21870;42.812;74.628;2024-01-15T03:58:22;50.70;;;32.40;;
35745;SDS011;21870;42.812;74.628;2024-01-15T04:00:48;102.85;;;35.00;;
35745;SDS011;21870;42.812;74.628;2024-01-15T04:03:14;84.10;;;34.80;;
35745;SDS011;21870;42.812;74.628;2024-01-15T04:05:40;128.32;;;36.28;;
35745;SDS011;21870;42.812;74.628;2024-01-15T04:08:06;144.85;;;37.50;;
35745;SDS011;21870;42.812;74.628;2024-01-15T04:10:32;62.92;;;32.92;;
35745;SDS011;21870;42.812;74.628;2024-01-15T04:12:58;146.15;;;34.58;;
35745;SDS011;21870;42.812;74.628;2024-01-15T04:15:25;125.32;;;32.15;;
35745;SDS011;21870;42.812;74.628;2024-01-15T04:17:51;89.50;;;30.85;;
35745;SDS011;21870;42.812;74.628;2024-01-15T04:20:17;118.45;;;32.33;;
35745;SDS011;21870;42.812;74.628;2024-01-15T04:22:43;75.97;;;34.40;;
35745;SDS011;21870;42.812;74.628;2024-01-15T04:25:09;46.03;;;31.20;;
35745;SDS011;21870;42.812;74.628;2024-01-15T04:27:35;109.70;;;35.25;;
35745;SDS011;21870;42.812;74.628;2024-01-15T04:30:01;58.17;;;31.30;;
35745;SDS011;21870;42.812;74.628;2024-01-15T04:32:28;68.65;;;34.45;;
35745;SDS011;21870;42.812;74.628;2024-01-15T04:34:54;74.38;;;33.40;;
35745;SDS011;21870;42.812;74.628;2024-01-15T04:37:20;47.83;;;32.42;;
35745;SDS011;21870;42.812;74.628;2024-01-15T04:39:46;41.33;;;29.38;;
35745;SDS011;21870;42.812;74.628;2024-01-15T04:42:13;53.22;;;33.28;;
35745;SDS011;21870;42.812;74.628;2024-01-15T04:44:38;95.63;;;37.42;;
35745;SDS011;21870;42.812;74.628;2024-01-15T04:47:04;96.78;;;37.20;;
35745;SDS011;21870;42.812;74.628;2024-01-15T04:49:31;53.80;;;34.13;;
35745;SDS011;21870;42.812;74.628;2024-01-15T04:51:57;55.65;;;35.42;;
35745;SDS011;21870;42.812;74.628;2024-01-15T04:54:23;67.07;;;37.03;;
35745;SDS011;21870;42.812;74.628;2024-01-15T04:56:49;58.47;;;40.30;;
35745;SDS011;21870;42.812;74.628;2024-01-15T04:59:15;53.97;;;33.67;;
35745;SDS011;21870;42.812;74.628;2024-01-15T05:01:41;70.82;;;36.42;;
35745;SDS011;21870;42.812;74.628;2024-01-15T05:04:07;44.75;;;33.95;;
35745;SDS011;21870;42.812;74.628;2024-01-15T05:06:33;77.60;;;37.58;;
35745;SDS011;21870;42.812;74.628;2024-01-15T05:08:59;66.38;;;36.20;;
35745;SDS011;21870;42.812;74.628;2024-01-15T05:11:25;87.30;;;38.65;;
35745;SDS011;21870;42.812;74.628;2024-01-15T05:13:51;84.78;;;40.47;;
35745;SDS011;21870;42.812;74.628;2024-01-15T05:16:17;61.05;;;39.15;;
35745;SDS011;21870;42.812;74.628;2024-01-15T05:18:43;66.60;;;42.90;;
35745;SDS011;21870;42.812;74.628;2024-01-15T05:21:11;76.43;;;41.78;;
35745;SDS011;21870;42.812;74.628;2024-01-15T05:23:37;87.28;;;42.92;;
35745;SDS011;21870;42.812;74.628;2024-01-15T05:26:03;148.48;;;43.88;;
35745;SDS011;21870;42.812;74.628;2024-01-15T05:28:29;128.18;;;44.45;;
35745;SDS011;21870;42.812;74.628;2024-01-15T05:30:55;81.63;;;41.97;;
35745;SDS011;21870;42.812;74.628;2024-01-15T05:33:22;149.88;;;46.20;;
35745;SDS011;21870;42.812;74.628;2024-01-15T05:35:49;68.22;;;40.00;;
35745;SDS011;21870;42.812;74.628;2024-01-15T05:38:16;106.45;;;46.00;;
35745;SDS011;21870;42.812;74.628;2024-01-15T05:40:42;128.52;;;50.00;;
35745;SDS011;21870;42.812;74.628;2024-01-15T05:43:08;86.57;;;47.35;;
35745;SDS011;21870;42.812;74.628;2024-01-15T05:45:34;101.47;;;47.55;;
35745;SDS011;21870;42.812;74.628;2024-01-15T05:48:03;71.10;;;43.83;;
35745;SDS011;21870;42.812;74.628;2024-01-15T05:50:29;100.13;;;46.47;;
35745;SDS011;21870;42.812;74.628;2024-01-15T05:52:55;69.22;;;43.60;;
35745;SDS011;21870;42.812;74.628;2024-01-15T05:55:21;134.88;;;45.80;;
35745;SDS011;21870;42.812;74.628;2024-01-15T05:57:47;95.90;;;42.33;;
35745;SDS011;21870;42.812;74.628;2024-01-15T06:00:14;62.72;;;41.85;;
35745;SDS011;21870;42.812;74.628;2024-01-15T06:02:40;71.20;;;40.42;;
35745;SDS011;21870;42.812;74.628;2024-01-15T06:05:06;106.60;;;36.75;;
35745;SDS011;21870;42.812;74.628;2024-01-15T06:07:35;60.28;;;36.25;;
35745;SDS011;21870;42.812;74.628;2024-01-15T06:10:02;62.22;;;35.35;;
35745;SDS011;21870;42.812;74.628;2024-01-15T06:12:30;45.03;;;33.67;;
35745;SDS011;21870;42.812;74.628;2024-01-15T06:14:57;73.90;;;37.08;;
35745;SDS011;21870;42.812;74.628;2024-01-15T06:17:23;49.92;;;35.55;;
35745;SDS011;21870;42.812;74.628;2024-01-15T06:19:49;55.20;;;33.83;;
35745;SDS011;21870;42.812;74.628;2024-01-15T06:22:15;63.35;;;36.40;;
35745;SDS011;21870;42.812;74.628;2024-01-15T06:24:41;55.65;;;35.80;;
35745;SDS011;21870;42.812;74.628;2024-01-15T06:27:07;42.40;;;30.63;;
35745;SDS011;21870;42.812;74.628;2024-01-15T06:29:37;78.28;;;35.65;;
35745;SDS011;21870;42.812;74.628;2024-01-15T06:32:03;95.18;;;32.13;;
35745;SDS011;21870;42.812;74.628;2024-01-15T06:34:30;40.67;;;30.17;;
35745;SDS011;21870;42.812;74.628;2024-01-15T06:36:56;52.47;;;30.33;;
35745;SDS011;21870;42.812;74.628;2024-01-15T06:39:22;50.15;;;31.30;;
35745;SDS011;21870;42.812;74.628;2024-01-15T06:41:48;54.15;;;32.17;;
35745;SDS011;21870;42.812;74.628;2024-01-15T06:44:14;41.40;;;29.80;;
35745;SDS011;21870;42.812;74.628;2024-01-15T06:46:44;53.58;;;28.90;;
35745;SDS011;21870;42.812;74.628;2024-01-15T06:49:10;49.05;;;27.58;;
35745;SDS011;21870;42.812;74.628;2024-01-15T06:51:37;41.47;;;27.00;;
35745;SDS011;21870;42.812;74.628;2024-01-15T06:54:03;73.13;;;30.58;;
35745;SDS011;21870;42.812;74.628;2024-01-15T06:56:30;67.15;;;29.85;;
35745;SDS011;21870;42.812;74.628;2024-01-15T06:58:57;50.58;;;32.25;;
35745;SDS011;21870;42.812;74.628;2024-01-15T07:01:23;60.45;;;33.40;;
35745;SDS011;21870;42.812;74.628;2024-01-15T07:03:49;71.50;;;31.00;;
35745;SDS011;21870;42.812;74.628;2024-01-15T07:06:15;43.38;;;28.98;;
35745;SDS011;21870;42.812;74.628;2024-01-15T07:08:41;66.40;;;30.98;;
35745;SDS011;21870;42.812;74.628;2024-01-15T07:11:08;62.45;;;31.27;;
35745;SDS011;21870;42.812;74.628;2024-01-15T07:13:35;39.88;;;28.30;;
35745;SDS011;21870;42.812;74.628;2024-01-15T07:16:02;105.65;;;33.47;;
35745;SDS011;21870;42.812;74.628;2024-01-15T07:18:28;76.30;;;30.65;;
35745;SDS011;21870;42.812;74.628;2024-01-15T07:20:54;40.35;;;27.90;;
35745;SDS011;21870;42.812;74.628;2024-01-15T07:23:20;71.30;;;31.15;;
35745;SDS011;21870;42.812;74.628;2024-01-15T07:25:46;77.57;;;33.20;;
35745;SDS011;21870;42.812;74.628;2024-01-15T07:28:12;75.32;;;32.17;;
35745;SDS011;21870;42.812;74.628;2024-01-15T07:30:38;61.35;;;31.77;;
35745;SDS011;21870;42.812;74.628;2024-01-15T07:33:04;60.90;;;32.47;;
35745;SDS011;21870;42.812;74.628;2024-01-15T07:35:31;48.25;;;32.38;;
35745;SDS011;21870;42.812;74.628;2024-01-15T07:37:57;59.80;;;33.83;;
35745;SDS011;21870;42.812;74.628;2024-01-15T07:40:23;45.90;;;31.33;;
35745;SDS011;21870;42.812;74.628;2024-01-15T07:42:50;75.93;;;38.28;;
35745;SDS011;21870;42.812;74.628;2024-01-15T07:45:16;63.22;;;31.83;;
35745;SDS011;21870;42.812;74.628;2024-01-15T07:47:43;50.13;;;34.60;;
35745;SDS011;21870;42.812;74.628;2024-01-15T07:50:09;92.88;;;37.28;;
35745;SDS011;21870;42.812;74.628;2024-01-15T07:52:35;82.25;;;36.17;;
35745;SDS011;21870;42.812;74.628;2024-01-15T07:55:01;62.40;;;35.13;;
35745;SDS011;21870;42.812;74.628;2024-01-15T07:57:31;51.35;;;34.03;;
35745;SDS011;21870;42.812;74.628;2024-01-15T07:59:57;56.33;;;34.78;;
35745;SDS011;21870;42.812;74.628;2024-01-15T08:02:23;57.40;;;37.78;;
35745;SDS011;21870;42.812;74.628;2024-01-15T08:04:49;60.30;;;38.40;;
35745;SDS011;21870;42.812;74.628;2024-01-15T08:07:15;61.85;;;42.85;;
35745;SDS011;21870;42.812;74.628;2024-01-15T08:09:41;63.60;;;40.92;;
35745;SDS011;21870;42.812;74.628;2024-01-15T08:12:07;66.15;;;42.17;;
35745;SDS011;21870;42.812;74.628;2024-01-15T08:14:37;74.82;;;44.72;;
35745;SDS011;21870;42.812;74.628;2024-01-15T08:17:04;66.93;;;42.17;;
35745;SDS011;21870;42.812;74.628;2024-01-15T08:19:30;54.50;;;40.92;;
35745;SDS011;21870;42.812;74.628;2024-01-15T08:21:56;65.45;;;44.50;;
35745;SDS011;21870;42.812;74.628;2024-01-15T08:24:22;58.65;;;42.30;;
35745;SDS011;21870;42.812;74.628;2024-01-15T08:26:48;65.60;;;41.25;;
35745;SDS011;21870;42.812;74.628;2024-01-15T08:29:14;61.03;;;43.17;;
35745;SDS011;21870;42.812;74.628;2024-01-15T08:31:41;68.00;;;45.15;;
35745;SDS011;21870;42.812;74.628;2024-01-15T08:34:07;56.45;;;40.40;;
35745;SDS011;21870;42.812;74.628;2024-01-15T08:36:33;72.82;;;45.92;;
35745;SDS011;21870;42.812;74.628;2024-01-15T08:39:01;62.13;;;44.15;;
35745;SDS011;21870;42.812;74.628;2024-01-15T08:41:30;70.45;;;46.90;;
35745;SDS011;21870;42.812;74.628;2024-01-15T08:43:59;54.20;;;40.90;;
35745;SDS011;21870;42.812;74.628;2024-01-15T08:46:26;65.75;;;45.83;;
35745;SDS011;21870;42.812;74.628;2024-01-15T08:48:52;77.25;;;50.05;;
35745;SDS011;21870;42.812;74.628;2024-01-15T08:51:18;69.55;;;48.65;;
35745;SDS011;21870;42.812;74.628;2024-01-15T08:53:44;66.13;;;47.72;;
35745;SDS011;21870;42.812;74.628;2024-01-15T08:56:10;77.47;;;53.35;;
35745;SDS011;21870;42.812;74.628;2024-01-15T08:58:36;88.20;;;58.53;;
35745;SDS011;21870;42.812;74.628;2024-01-15T09:01:02;81.60;;;57.15;;
35745;SDS011;21870;42.812;74.628;2024-01-15T09:03:28;74.38;;;53.78;;
35745;SDS011;21870;42.812;74.628;2024-01-15T09:05:55;78.60;;;56.30;;
35745;SDS011;21870;42.812;74.628;2024-01-15T09:08:21;75.20;;;54.60;;
35745;SDS011;21870;42.812;74.628;2024-01-15T09:10:47;75.57;;;53.50;;
35745;SDS011;21870;42.812;74.628;2024-01-15T09:13:13;72.30;;;52.75;;
35745;SDS011;21870;42.812;74.628;2024-01-15T09:15:39;72.85;;;49.42;;
35745;SDS011;21870;42.812;74.628;2024-01-15T09:18:05;71.90;;;50.20;;
35745;SDS011;21870;42.812;74.628;2024-01-15T09:20:31;59.95;;;44.22;;
35745;SDS011;21870;42.812;74.628;2024-01-15T09:22:57;60.15;;;44.97;;
35745;SDS011;21870;42.812;74.628;2024-01-15T09:25:23;56.25;;;40.47;;
35745;SDS011;21870;42.812;74.628;2024-01-15T09:27:49;61.55;;;43.67;;
35745;SDS011;21870;42.812;74.628;2024-01-15T09:30:15;60.58;;;46.25;;
35745;SDS011;21870;42.812;74.628;2024-01-15T09:32:41;69.45;;;49.40;;
35745;SDS011;21870;42.812;74.628;2024-01-15T09:35:08;64.50;;;47.92;;
35745;SDS011;21870;42.812;74.628;2024-01-15T09:37:35;66.38;;;46.45;;
35745;SDS011;21870;42.812;74.628;2024-01-15T09:40:02;64.65;;;50.22;;
35745;SDS011;21870;42.812;74.628;2024-01-15T09:42:31;71.82;;;50.42;;
35745;SDS011;21870;42.812;74.628;2024-01-15T09:44:58;80.35;;;58.63;;
35745;SDS011;21870;42.812;74.628;2024-01-15T09:47:24;79.68;;;57.83;;
35745;SDS011;21870;42.812;74.628;2024-01-15T09:49:50;91.18;;;60.65;;
35745;SDS011;21870;42.812;74.628;2024-01-15T09:52:16;86.15;;;60.35;;
35745;SDS011;21870;42.812;74.628;2024-01-15T09:54:45;85.68;;;61.00;;
35745;SDS011;21870;42.812;74.628;2024-01-15T09:57:12;96.22;;;63.08;;
35745;SDS011;21870;42.812;74.628;2024-01-15T09:59:38;100.30;;;66.68;;
35745;SDS011;21870;42.812;74.628;2024-01-15T10:02:07;90.53;;;64.10;;
35745;SDS011;21870;42.812;74.628;2024-01-15T10:04:34;90.72;;;63.38;;
35745;SDS011;21870;42.812;74.628;2024-01-15T10:07:01;90.22;;;65.97;;
35745;SDS011;21870;42.812;74.628;2024-01-15T10:09:27;84.80;;;57.85;;
35745;SDS011;21870;42.812;74.628;2024-01-15T10:11:53;85.13;;;60.75;;
35745;SDS011;21870;42.812;74.628;2024-01-15T10:14:19;83.00;;;60.67;;
35745;SDS011;21870;42.812;74.628;2024-01-15T10:16:45;77.28;;;56.13;;
35745;SDS011;21870;42.812;74.628;2024-01-15T10:19:11;81.00;;;58.80;;
35745;SDS011;21870;42.812;74.628;2024-01-15T10:21:37;85.20;;;61.15;;
35745;SDS011;21870;42.812;74.628;2024-01-15T10:24:04;79.53;;;56.90;;
35745;SDS011;21870;42.812;74.628;2024-01-15T10:26:30;82.55;;;59.80;;
35745;SDS011;21870;42.812;74.628;2024-01-15T10:29:00;70.75;;;52.30;;
35745;SDS011;21870;42.812;74.628;2024-01-15T10:31:26;76.13;;;53.65;;
35745;SDS011;21870;42.812;74.628;2024-01-15T10:33:53;71.60;;;54.42;;
35745;SDS011;21870;42.812;74.628;2024-01-15T10:36:20;76.60;;;54.40;;
35745;SDS011;21870;42.812;74.628;2024-01-15T10:38:46;74.55;;;55.63;;
35745;SDS011;21870;42.812;74.628;2024-01-15T10:41:12;75.38;;;54.05;;
35745;SDS011;21870;42.812;74.628;2024-01-15T10:43:38;68.20;;;50.53;;
35745;SDS011;21870;42.812;74.628;2024-01-15T10:46:07;76.80;;;54.53;;
35745;SDS011;21870;42.812;74.628;2024-01-15T10:48:34;74.65;;;52.85;;
35745;SDS011;21870;42.812;74.628;2024-01-15T10:51:01;75.28;;;53.42;;
35745;SDS011;21870;42.812;74.628;2024-01-15T10:53:36;78.07;;;53.55;;
35745;SDS011;21870;42.812;74.628;2024-01-15T10:56:05;74.63;;;52.83;;
35745;SDS011;21870;42.812;74.628;2024-01-15T10:58:32;72.30;;;52.25;;
35745;SDS011;21870;42.812;74.628;2024-01-15T11:01:00;69.10;;;50.40;;
35745;SDS011;21870;42.812;74.628;2024-01-15T11:03:27;73.45;;;52.63;;
35745;SDS011;21870;42.812;74.628;2024-01-15T11:05:54;70.22;;;51.97;;
35745;SDS011;21870;42.812;74.628;2024-01-15T11:08:20;66.32;;;48.22;;
35745;SDS011;21870;42.812;74.628;2024-01-15T11:10:47;64.47;;;47.97;;
35745;SDS011;21870;42.812;74.628;2024-01-15T11:13:20;56.10;;;41.58;;
35745;SDS011;21870;42.812;74.628;2024-01-15T11:15:57;47.42;;;38.65;;
35745;SDS011;21870;42.812;74.628;2024-01-15T11:18:28;54.35;;;41.35;;
35745;SDS011;21870;42.812;74.628;2024-01-15T11:23:58;43.33;;;35.17;;
35745;SDS011;21870;42.812;74.628;2024-01-15T11:26:32;46.38;;;37.40;;
35745;SDS011;21870;42.812;74.628;2024-01-15T11:29:01;44.88;;;37.63;;
35745;SDS011;21870;42.812;74.628;2024-01-15T11:34:05;51.13;;;39.88;;
35745;SDS011;21870;42.812;74.628;2024-01-15T11:40:02;52.30;;;39.47;;
35745;SDS011;21870;42.812;74.628;2024-01-15T11:42:08;51.20;;;39.90;;
35745;SDS011;21870;42.812;74.628;2024-01-15T11:44:39;48.28;;;38.17;;
35745;SDS011;21870;42.812;74.628;2024-01-15T11:47:06;50.95;;;39.83;;
35745;SDS011;21870;42.812;74.628;2024-01-15T11:52:37;52.83;;;40.90;;
35745;SDS011;21870;42.812;74.628;2024-01-15T11:55:11;53.50;;;40.58;;
35745;SDS011;21870;42.812;74.628;2024-01-15T11:57:40;53.22;;;41.42;;
35745;SDS011;21870;42.812;74.628;2024-01-15T12:00:11;57.30;;;43.35;;
35745;SDS011;21870;42.812;74.628;2024-01-15T12:02:39;62.15;;;44.33;;
35745;SDS011;21870;42.812;74.628;2024-01-15T12:05:07;55.92;;;45.45;;
35745;SDS011;21870;42.812;74.628;2024-01-15T12:07:34;58.83;;;45.50;;
35745;SDS011;21870;42.812;74.628;2024-01-15T12:10:00;56.78;;;44.38;;
35745;SDS011;21870;42.812;74.628;2024-01-15T12:12:31;62.15;;;46.80;;
35745;SDS011;21870;42.812;74.628;2024-01-15T12:15:21;58.42;;;43.92;;
35745;SDS011;21870;42.812;74.628;2024-01-15T12:17:47;57.75;;;44.00;;
35745;SDS011;21870;42.812;74.628;2024-01-15T12:20:13;52.20;;;41.40;;
35745;SDS011;21870;42.812;74.628;2024-01-15T12:22:41;52.45;;;42.15;;
35745;SDS011;21870;42.812;74.628;2024-01-15T12:25:07;48.17;;;38.50;;
35745;SDS011;21870;42.812;74.628;2024-01-15T12:27:33;42.40;;;35.38;;
35745;SDS011;21870;42.812;74.628;2024-01-15T12:29:59;51.72;;;41.72;;
35745;SDS011;21870;42.812;74.628;2024-01-15T12:32:25;47.50;;;38.15;;
35745;SDS011;21870;42.812;74.628;2024-01-15T12:34:51;50.10;;;38.83;;
35745;SDS011;21870;42.812;74.628;2024-01-15T12:37:20;50.90;;;39.92;;
35745;SDS011;21870;42.812;74.628;2024-01-15T12:39:47;48.63;;;37.20;;
35745;SDS011;21870;42.812;74.628;2024-01-15T12:42:16;47.25;;;39.53;;
35745;SDS011;21870;42.812;74.628;2024-01-15T12:44:42;45.47;;;37.10;;
35745;SDS011;21870;42.812;74.628;2024-01-15T12:47:12;46.03;;;37.33;;
35745;SDS011;21870;42.812;74.628;2024-01-15T12:49:39;45.42;;;36.78;;
35745;SDS011;21870;42.812;74.628;2024-01-15T12:52:08;49.15;;;37.72;;
35745;SDS011;21870;42.812;74.628;2024-01-15T12:54:35;48.45;;;38.25;;
35745;SDS011;21870;42.812;74.628;2024-01-15T12:57:01;47.28;;;38.30;;
35745;SDS011;21870;42.812;74.628;2024-01-15T12:59:27;45.30;;;36.50;;
35745;SDS011;21870;42.812;74.628;2024-01-15T13:01:54;49.42;;;39.72;;
35745;SDS011;21870;42.812;74.628;2024-01-15T13:04:21;46.60;;;35.83;;
35745;SDS011;21870;42.812;74.628;2024-01-15T13:06:49;45.65;;;36.72;;
35745;SDS011;21870;42.812;74.628;2024-01-15T13:09:15;46.42;;;35.97;;
35745;SDS011;21870;42.812;74.628;2024-01-15T13:11:42;48.35;;;37.70;;
35745;SDS011;21870;42.812;74.628;2024-01-15T13:14:11;48.78;;;34.72;;
35745;SDS011;21870;42.812;74.628;2024-01-15T13:16:41;51.25;;;36.22;;
35745;SDS011;21870;42.812;74.628;2024-01-15T13:19:07;51.55;;;37.67;;
35745;SDS011;21870;42.812;74.628;2024-01-15T13:21:40;43.03;;;32.83;;
35745;SDS011;21870;42.812;74.628;2024-01-15T13:24:06;44.33;;;36.67;;
35745;SDS011;21870;42.812;74.628;2024-01-15T13:26:32;44.53;;;34.45;;
35745;SDS011;21870;42.812;74.628;2024-01-15T13:29:04;45.80;;;36.40;;
35745;SDS011;21870;42.812;74.628;2024-01-15T13:31:31;52.72;;;42.97;;
35745;SDS011;21870;42.812;74.628;2024-01-15T13:33:58;47.90;;;35.55;;
35745;SDS011;21870;42.812;74.628;2024-01-15T13:36:25;54.50;;;40.20;;
35745;SDS011;21870;42.812;74.628;2024-01-15T13:38:51;42.65;;;32.67;;
35745;SDS011;21870;42.812;74.628;2024-01-15T13:41:19;42.97;;;33.28;;
35745;SDS011;21870;42.812;74.628;2024-01-15T13:43:50;46.83;;;34.13;;
35745;SDS011;21870;42.812;74.628;2024-01-15T13:46:25;40.15;;;33.40;;
35745;SDS011;21870;42.812;74.628;2024-01-15T13:48:52;42.13;;;33.30;;
35745;SDS011;21870;42.812;74.628;2024-01-15T13:51:20;45.33;;;34.22;;
35745;SDS011;21870;42.812;74.628;2024-01-15T13:53:49;48.90;;;38.17;;
35745;SDS011;21870;42.812;74.628;2024-01-15T13:56:15;44.03;;;34.50;;
35745;SDS011;21870;42.812;74.628;2024-01-15T13:58:42;50.05;;;34.72;;
35745;SDS011;21870;42.812;74.628;2024-01-15T14:01:08;49.38;;;36.70;;
35745;SDS011;21870;42.812;74.628;2024-01-15T14:03:34;47.55;;;37.97;;
35745;SDS011;21870;42.812;74.628;2024-01-15T14:06:00;51.63;;;37.60;;
35745;SDS011;21870;42.812;74.628;2024-01-15T14:08:34;56.35;;;37.95;;
35745;SDS011;21870;42.812;74.628;2024-01-15T14:11:03;57.10;;;39.13;;
35745;SDS011;21870;42.812;74.628;2024-01-15T14:13:31;55.10;;;39.22;;
35745;SDS011;21870;42.812;74.628;2024-01-15T14:15:58;73.85;;;51.92;;